Time;durP1;ratioP1;P1;durP2;ratioP2;P2;SDS_P1;SDS_P2;PMS_P1;PMS_P2;Temp;Humidity;BMP_temperature;BMP_pressure;BME280_temperature;BME280_humidity;BME280_pressure;Samples;Min_cycle;Max_cycle;Signal;HPM_P1;HPM_P2
2021/05/31 09:24:23;;;;;;;6.07;3.50;;;;;;;;;;5067382;28;20379;-64
2021/05/31 09:26:53;;;;;;;8.07;3.45;;;;;;;;;;5068165;28;20099;-65
2021/05/31 09:29:19;;;;;;;5.15;3.42;;;;;;;;;;5067884;28;20025;-67
2021/05/31 09:31:45;;;;;;;7.72;2.95;;;;;;;;;;5067132;28;20059;-67
2021/05/31 09:34:12;;;;;;;6.70;2.97;;;;;;;;;;5068659;28;20042;-68
2021/05/31 09:36:58;;;;;;;6.85;2.70;;;;;;;;;;5068655;28;20035;-65
2021/05/31 11:00:06;;;;;;;2.10;1.50;;;;;;;;;;5069254;28;20375;-69
2021/05/31 11:02:31;;;;;;;2.08;1.58;;;;;;;;;;5073123;28;20507;-68
2021/05/31 11:05:09;;;;;;;3.47;1.70;;;;;;;;;;5082522;28;20021;-70
2021/05/31 11:07:35;;;;;;;5.47;1.67;;;;;;;;;;5079916;28;20024;-69
2021/05/31 11:10:00;;;;;;;3.78;1.67;;;;;;;;;;5073575;28;20518;-68
2021/05/31 11:12:32;;;;;;;3.03;1.70;;;;;;;;;;5084999;28;20034;-68
2021/05/31 11:15:11;;;;;;;6.57;1.60;;;;;;;;;;5075364;28;20024;-68
2021/05/31 11:17:56;;;;;;;4.23;1.90;;;;;;;;;;5075540;28;20013;-68
2021/05/31 11:20:22;;;;;;;2.25;1.67;;;;;;;;;;5083517;28;20253;-67
2021/05/31 11:22:58;;;;;;;6.20;1.90;;;;;;;;;;5073910;28;20012;-66
2021/05/31 11:25:24;;;;;;;9.02;2.10;;;;;;;;;;5078772;28;20048;-66
2021/05/31 11:27:54;;;;;;;8.60;2.25;;;;;;;;;;5082154;28;20059;-65
2021/05/31 11:30:25;;;;;;;5.88;2.30;;;;;;;;;;5072079;28;20024;-62
2021/05/31 11:32:52;;;;;;;58.90;29.67;;;;;;;;;;5080370;28;20021;-62
2021/05/31 11:35:19;;;;;;;7.55;3.53;;;;;;;;;;5058526;28;20014;-64
2021/05/31 11:37:45;;;;;;;4.25;2.10;;;;;;;;;;5075248;28;20040;-63
2021/05/31 11:40:22;;;;;;;2.75;2.47;;;;;;;;;;5071059;28;20119;-63
2021/05/31 11:42:48;;;;;;;441.50;55.17;;;;;;;;;;5066599;28;20389;-64
2021/05/31 11:45:14;;;;;;;43.80;7.28;;;;;;;;;;5063278;28;20021;-64
2021/05/31 11:47:39;;;;;;;7.28;3.17;;;;;;;;;;5063783;28;20013;-66
2021/05/31 11:50:05;;;;;;;16.67;5.07;;;;;;;;;;5052629;28;20049;-65
2021/05/31 11:52:30;;;;;;;3.80;2.55;;;;;;;;;;5064920;28;20024;-64
2021/05/31 11:54:56;;;;;;;5.00;2.70;;;;;;;;;;5075947;28;20071;-65
2021/05/31 11:57:23;;;;;;;3.50;2.10;;;;;;;;;;5057630;28;20028;-65
2021/05/31 11:59:51;;;;;;;3.28;1.70;;;;;;;;;;5062389;28;20432;-64
2021/05/31 12:02:18;;;;;;;2.95;1.92;;;;;;;;;;5084101;28;20070;-63
2021/05/31 12:04:44;;;;;;;2.72;2.15;;;;;;;;;;5070722;28;20012;-64
2021/05/31 12:07:11;;;;;;;5.45;2.05;;;;;;;;;;5079468;28;20017;-64
2021/05/31 12:09:42;;;;;;;51.88;15.35;;;;;;;;;;5076250;28;20043;-65
2021/05/31 12:12:09;;;;;;;66.57;25.63;;;;;;;;;;5058253;28;20390;-64
2021/05/31 12:14:47;;;;;;;16.90;3.97;;;;;;;;;;5070110;28;20017;-65
2021/05/31 12:17:13;;;;;;;24.42;16.25;;;;;;;;;;5062651;28;20013;-64
2021/05/31 12:19:39;;;;;;;15.98;14.35;;;;;;;;;;5054542;28;20025;-65
2021/05/31 12:22:06;;;;;;;33.58;28.60;;;;;;;;;;5068718;28;20009;-64
2021/05/31 12:24:32;;;;;;;42.75;38.75;;;;;;;;;;5057294;28;20024;-64
2021/05/31 12:26:59;;;;;;;94.95;86.80;;;;;;;;;;5066313;28;20028;-64
2021/05/31 12:29:32;;;;;;;96.22;87.82;;;;;;;;;;5064016;28;20143;-65
2021/05/31 12:31:58;;;;;;;155.43;138.27;;;;;;;;;;5059141;28;20019;-64
2021/05/31 12:34:25;;;;;;;3.65;1.73;;;;;;;;;;5070566;28;20456;-64
2021/05/31 12:36:52;;;;;;;4.97;2.20;;;;;;;;;;5057571;28;20069;-65
2021/05/31 12:39:17;;;;;;;2.65;1.77;;;;;;;;;;5064490;28;20400;-64
2021/05/31 12:41:43;;;;;;;3.30;1.63;;;;;;;;;;5066668;28;20021;-64
2021/05/31 12:44:09;;;;;;;5.05;1.83;;;;;;;;;;5057359;28;20021;-64
2021/05/31 12:46:42;;;;;;;4.22;1.88;;;;;;;;;;5070506;28;20547;-63
2021/05/31 12:49:08;;;;;;;5.35;2.03;;;;;;;;;;5061927;28;20013;-63
2021/05/31 12:51:34;;;;;;;4.18;1.67;;;;;;;;;;5059055;28;20426;-64
2021/05/31 12:54:00;;;;;;;5.82;1.80;;;;;;;;;;5068402;28;20036;-64
2021/05/31 12:56:29;;;;;;;4.05;1.60;;;;;;;;;;5056733;28;20132;-64
2021/05/31 12:59:04;;;;;;;2.10;1.60;;;;;;;;;;5067180;28;20128;-64
2021/05/31 13:01:30;;;;;;;23.55;21.60;;;;;;;;;;5064572;28;20031;-64
2021/05/31 13:03:56;;;;;;;7.53;2.97;;;;;;;;;;5058817;28;20025;-65
2021/05/31 13:06:40;;;;;;;2.75;1.70;;;;;;;;;;5038692;28;20018;-66
2021/05/31 13:09:07;;;;;;;5.20;2.03;;;;;;;;;;5060593;28;20153;-65
2021/05/31 13:11:39;;;;;;;23.75;21.85;;;;;;;;;;5070921;28;20039;-65
2021/05/31 13:14:18;;;;;;;46.15;41.58;;;;;;;;;;5055890;28;20021;-64
2021/05/31 13:16:58;;;;;;;6.88;1.75;;;;;;;;;;5050474;28;20012;-65
2021/05/31 13:19:24;;;;;;;;;;;;;;;;;;5043256;28;20047;-65
2021/05/31 13:22:01;;;;;;;4.85;1.73;;;;;;;;;;5042627;28;19909;-65
2021/05/31 13:24:27;;;;;;;6.35;1.77;;;;;;;;;;5054209;28;20107;-64
2021/05/31 13:26:53;;;;;;;2.08;1.52;;;;;;;;;;5047034;28;20358;-63
2021/05/31 13:29:25;;;;;;;5.82;1.50;;;;;;;;;;5063603;28;20023;-64
2021/05/31 13:31:51;;;;;;;4.03;1.80;;;;;;;;;;5066588;28;20043;-64
2021/05/31 13:34:16;;;;;;;2.50;1.50;;;;;;;;;;5054701;28;20138;-63
2021/05/31 13:36:42;;;;;;;2.25;1.67;;;;;;;;;;5068776;28;20043;-65
2021/05/31 13:39:09;;;;;;;2.17;1.67;;;;;;;;;;5060144;28;20021;-66
2021/05/31 13:41:39;;;;;;;2.45;1.67;;;;;;;;;;5060412;28;20025;-67
2021/05/31 13:44:12;;;;;;;4.53;1.80;;;;;;;;;;5066740;28;20044;-67
2021/05/31 13:46:37;;;;;;;2.40;1.83;;;;;;;;;;5039474;28;20100;-67
2021/05/31 13:49:07;;;;;;;2.33;1.50;;;;;;;;;;5064486;28;20564;-65
2021/05/31 13:51:51;;;;;;;2.17;1.75;;;;;;;;;;5040967;28;20033;-68
2021/05/31 13:54:28;;;;;;;3.55;1.67;;;;;;;;;;5065535;28;20033;-67
2021/05/31 13:56:55;;;;;;;1.52;1.30;;;;;;;;;;5057935;28;20107;-67
2021/05/31 13:59:24;;;;;;;2.08;1.30;;;;;;;;;;5062499;28;20148;-68
2021/05/31 14:01:58;;;;;;;2.85;1.60;;;;;;;;;;5065807;28;20048;-69
2021/05/31 14:04:25;;;;;;;3.17;1.52;;;;;;;;;;5054807;28;20029;-68
2021/05/31 14:06:50;;;;;;;3.20;1.40;;;;;;;;;;5066597;28;20013;-67
2021/05/31 14:09:17;;;;;;;6.10;2.80;;;;;;;;;;5060766;28;20020;-69
2021/05/31 14:11:42;;;;;;;7.00;2.88;;;;;;;;;;5058831;28;20021;-69
2021/05/31 14:14:07;;;;;;;1.67;1.58;;;;;;;;;;5067998;28;20008;-71
2021/05/31 14:16:33;;;;;;;1.98;1.63;;;;;;;;;;5054925;28;20045;-70
2021/05/31 14:18:58;;;;;;;1.55;1.30;;;;;;;;;;5064642;28;20029;-68
2021/05/31 14:21:24;;;;;;;1.95;1.45;;;;;;;;;;5060823;28;20036;-67
2021/05/31 14:23:49;;;;;;;3.42;1.52;;;;;;;;;;5071893;28;20016;-69
2021/05/31 14:26:15;;;;;;;2.00;1.48;;;;;;;;;;5069618;28;20020;-68
2021/05/31 14:28:40;;;;;;;3.10;1.70;;;;;;;;;;5072504;28;20042;-67
2021/05/31 14:31:06;;;;;;;2.42;1.40;;;;;;;;;;5072463;28;20025;-67
2021/05/31 14:33:31;;;;;;;2.67;1.48;;;;;;;;;;5072656;28;20370;-66
2021/05/31 14:35:57;;;;;;;1.38;1.27;;;;;;;;;;5046838;28;20031;-68
2021/05/31 14:38:24;;;;;;;96.35;79.00;;;;;;;;;;5052446;28;20032;-67
2021/05/31 14:40:53;;;;;;;12.48;2.75;;;;;;;;;;5052261;28;20028;-68
2021/05/31 14:43:18;;;;;;;9.55;2.78;;;;;;;;;;5051931;28;20500;-69
2021/05/31 14:45:43;;;;;;;3.70;1.52;;;;;;;;;;5052554;28;20052;-69
2021/05/31 14:48:09;;;;;;;6.78;2.38;;;;;;;;;;5052035;28;20044;-69
2021/05/31 14:50:38;;;;;;;7.18;5.25;;;;;;;;;;5051656;28;20741;-69
2021/05/31 14:53:04;;;;;;;98.45;92.20;;;;;;;;;;5052074;28;20017;-69
2021/05/31 14:55:30;;;;;;;522.67;478.63;;;;;;;;;;5051912;28;20024;-69
2021/05/31 14:57:55;;;;;;;12.90;11.52;;;;;;;;;;5052207;28;20020;-69
2021/05/31 15:00:23;;;;;;;7.25;2.25;;;;;;;;;;5051878;28;20381;-69
2021/05/31 15:02:49;;;;;;;10.40;2.42;;;;;;;;;;5052077;28;20020;-69
2021/05/31 15:05:17;;;;;;;10.50;2.42;;;;;;;;;;5052015;28;20013;-69
2021/05/31 15:07:43;;;;;;;8.30;2.80;;;;;;;;;;5052241;28;20037;-69
2021/05/31 15:10:08;;;;;;;10.43;3.03;;;;;;;;;;5051916;28;20477;-69
2021/05/31 15:12:34;;;;;;;3.45;1.60;;;;;;;;;;5052226;28;20017;-69
2021/05/31 15:15:00;;;;;;;1.70;1.52;;;;;;;;;;5052158;28;20028;-69
2021/05/31 15:17:27;;;;;;;6.70;2.08;;;;;;;;;;5052042;28;20017;-69
2021/05/31 15:19:53;;;;;;;23.88;6.20;;;;;;;;;;5051132;28;20489;-69
2021/05/31 15:22:18;;;;;;;9.45;2.60;;;;;;;;;;5051540;28;20021;-69
2021/05/31 15:24:44;;;;;;;9.88;2.63;;;;;;;;;;5051587;28;20021;-68
2021/05/31 15:27:11;;;;;;;4.72;2.08;;;;;;;;;;5051754;28;20024;-69
2021/05/31 15:29:38;;;;;;;5.47;1.50;;;;;;;;;;5052287;28;20062;-69
2021/05/31 15:32:04;;;;;;;6.55;2.50;;;;;;;;;;5051557;28;20032;-69
2021/05/31 15:34:32;;;;;;;3.00;1.50;;;;;;;;;;5051639;28;20070;-69
2021/05/31 15:36:58;;;;;;;5.47;1.80;;;;;;;;;;5050615;28;20056;-69
2021/05/31 15:39:23;;;;;;;5.50;2.10;;;;;;;;;;5051305;28;20477;-68
2021/05/31 15:41:51;;;;;;;10.95;2.28;;;;;;;;;;5051739;28;20031;-69
2021/05/31 15:44:24;;;;;;;7.82;2.58;;;;;;;;;;5051247;28;20373;-69
2021/05/31 15:46:50;;;;;;;5.78;2.10;;;;;;;;;;5054203;28;20354;-69
2021/05/31 15:49:18;;;;;;;9.13;2.67;;;;;;;;;;5055234;28;20028;-69
2021/05/31 15:51:44;;;;;;;7.82;2.17;;;;;;;;;;5053622;28;20025;-69
2021/05/31 15:54:09;;;;;;;15.75;3.95;;;;;;;;;;5054758;28;20036;-69
2021/05/31 15:56:35;;;;;;;3.28;1.63;;;;;;;;;;5055108;28;20029;-69
2021/05/31 15:59:01;;;;;;;6.63;2.05;;;;;;;;;;5055132;28;20041;-69
2021/05/31 16:01:28;;;;;;;8.50;2.28;;;;;;;;;;5055372;28;20024;-69
2021/05/31 16:03:53;;;;;;;7.07;2.38;;;;;;;;;;5055313;28;20033;-69
2021/05/31 16:06:19;;;;;;;11.43;2.72;;;;;;;;;;5054759;28;20750;-69
2021/05/31 16:08:44;;;;;;;11.50;3.13;;;;;;;;;;5054839;28;20041;-68
2021/05/31 16:11:10;;;;;;;5.32;2.05;;;;;;;;;;5055075;28;20465;-69
2021/05/31 16:13:37;;;;;;;8.15;2.38;;;;;;;;;;5054827;28;20549;-69
2021/05/31 16:16:03;;;;;;;11.02;3.38;;;;;;;;;;5054663;28;20025;-69
2021/05/31 16:18:30;;;;;;;22.77;4.57;;;;;;;;;;5054392;28;20461;-69
2021/05/31 16:20:57;;;;;;;7.07;2.42;;;;;;;;;;5054362;28;20025;-69
2021/05/31 16:23:27;;;;;;;11.23;2.95;;;;;;;;;;5054603;28;20025;-69
2021/05/31 16:25:53;;;;;;;7.82;2.33;;;;;;;;;;5054713;28;20450;-69
2021/05/31 16:28:19;;;;;;;9.00;2.90;;;;;;;;;;5054331;28;20009;-69
2021/05/31 16:30:45;;;;;;;9.25;2.45;;;;;;;;;;5054644;28;20098;-69
2021/05/31 16:33:12;;;;;;;5.57;1.67;;;;;;;;;;5054673;28;20034;-69
2021/05/31 16:35:40;;;;;;;2.67;1.65;;;;;;;;;;5054664;28;20057;-69
2021/05/31 16:38:06;;;;;;;11.82;3.20;;;;;;;;;;5053917;28;20063;-69
2021/05/31 16:40:32;;;;;;;3.75;2.30;;;;;;;;;;5054546;28;20044;-69
2021/05/31 16:42:58;;;;;;;9.30;3.03;;;;;;;;;;5054432;28;20030;-69
2021/05/31 16:45:25;;;;;;;7.72;3.00;;;;;;;;;;5054394;28;20025;-69
2021/05/31 16:47:50;;;;;;;8.10;2.55;;;;;;;;;;5054328;28;20012;-69
2021/05/31 16:50:16;;;;;;;25.17;6.82;;;;;;;;;;5053719;28;20413;-69
2021/05/31 16:52:42;;;;;;;11.57;2.97;;;;;;;;;;5054109;28;20024;-68
2021/05/31 16:55:09;;;;;;;5.35;2.40;;;;;;;;;;5054135;28;20432;-69
2021/05/31 16:57:37;;;;;;;5.28;2.38;;;;;;;;;;5054073;28;20017;-71
2021/05/31 17:00:04;;;;;;;14.82;4.05;;;;;;;;;;5053532;28;20556;-68
2021/05/31 17:02:31;;;;;;;9.23;2.50;;;;;;;;;;5054050;28;20013;-69
2021/05/31 17:04:58;;;;;;;15.13;3.28;;;;;;;;;;5054263;28;20032;-68
2021/05/31 17:07:23;;;;;;;13.70;3.88;;;;;;;;;;5053876;28;20369;-69
2021/05/31 17:09:51;;;;;;;8.65;2.97;;;;;;;;;;5054152;28;20021;-68
2021/05/31 17:15:17;;;;;;;5.18;2.42;;;;;;;;;;5053808;28;20036;-68
2021/05/31 17:20:30;;;;;;;8.57;3.05;;;;;;;;;;5053365;28;20507;-69
2021/05/31 17:22:56;;;;;;;11.90;3.78;;;;;;;;;;5053696;28;20025;-68
2021/05/31 17:25:22;;;;;;;17.65;4.13;;;;;;;;;;5052443;28;20366;-69
2021/05/31 17:27:49;;;;;;;19.52;4.47;;;;;;;;;;5053596;28;20066;-69
2021/05/31 17:30:24;;;;;;;25.35;5.60;;;;;;;;;;5053149;28;20013;-69
2021/05/31 17:32:50;;;;;;;10.80;2.95;;;;;;;;;;5053761;28;20067;-69
2021/05/31 17:35:17;;;;;;;16.75;4.28;;;;;;;;;;5053469;28;20032;-69
2021/05/31 17:37:43;;;;;;;10.15;2.47;;;;;;;;;;5053485;28;20013;-69
2021/05/31 17:40:10;;;;;;;9.15;3.40;;;;;;;;;;5053008;28;20130;-69
2021/05/31 17:42:37;;;;;;;4.72;2.40;;;;;;;;;;5053415;28;20496;-68
2021/05/31 17:45:07;;;;;;;8.75;2.50;;;;;;;;;;5053211;28;20397;-69
2021/05/31 17:47:33;;;;;;;7.28;2.17;;;;;;;;;;5053158;28;20073;-69
2021/05/31 17:49:59;;;;;;;33.55;8.23;;;;;;;;;;5052359;28;20027;-69
2021/05/31 17:52:26;;;;;;;10.57;8.68;;;;;;;;;;5053269;28;20043;-69
2021/05/31 17:54:52;;;;;;;9.95;5.05;;;;;;;;;;5052990;28;20552;-69
2021/05/31 17:57:17;;;;;;;3.83;2.17;;;;;;;;;;5052892;28;20103;-69
2021/05/31 17:59:44;;;;;;;2.95;2.22;;;;;;;;;;5052744;28;20045;-69
2021/05/31 18:02:10;;;;;;;3.63;2.17;;;;;;;;;;5052566;28;20048;-69
2021/05/31 18:04:37;;;;;;;8.65;2.17;;;;;;;;;;5052916;28;20023;-69
2021/05/31 18:07:02;;;;;;;4.43;2.15;;;;;;;;;;5052824;28;20428;-69
2021/05/31 18:09:29;;;;;;;4.68;2.40;;;;;;;;;;5052506;28;20021;-69
2021/05/31 18:11:56;;;;;;;4.82;2.60;;;;;;;;;;5052718;28;20049;-69
2021/05/31 18:14:21;;;;;;;3.50;2.85;;;;;;;;;;5051283;28;20052;-69
2021/05/31 18:16:53;;;;;;;4.40;2.90;;;;;;;;;;5052520;28;20126;-69
2021/05/31 18:19:20;;;;;;;7.60;2.70;;;;;;;;;;5052579;28;20413;-69
2021/05/31 18:21:45;;;;;;;3.97;3.20;;;;;;;;;;5052035;28;20506;-69
2021/05/31 18:24:11;;;;;;;3.92;2.67;;;;;;;;;;5052305;28;20024;-69
2021/05/31 18:26:39;;;;;;;6.15;2.45;;;;;;;;;;5051277;28;20048;-69
2021/05/31 18:29:05;;;;;;;7.80;2.38;;;;;;;;;;5052391;28;20024;-69
2021/05/31 18:31:35;;;;;;;10.20;4.00;;;;;;;;;;5052584;28;20058;-69
2021/05/31 18:34:06;;;;;;;;;;;;;;;;;;5052649;28;20023;-68
2021/05/31 18:36:34;;;;;;;;;;;;;;;;;;5052819;28;19994;-69
2021/05/31 18:39:00;;;;;;;5.18;2.38;;;;;;;;;;5052280;28;19912;-68
2021/05/31 18:41:26;;;;;;;3.85;2.38;;;;;;;;;;5052165;28;20024;-69
2021/05/31 18:43:52;;;;;;;3.67;2.60;;;;;;;;;;5052430;28;20040;-69
2021/05/31 18:46:19;;;;;;;2.30;2.10;;;;;;;;;;5052356;28;20024;-69
2021/05/31 18:48:44;;;;;;;3.67;2.30;;;;;;;;;;5052366;28;20477;-69
2021/05/31 18:51:10;;;;;;;2.70;2.08;;;;;;;;;;5050619;28;20051;-69
2021/05/31 18:53:36;;;;;;;2.55;2.08;;;;;;;;;;5052442;28;20500;-69
2021/05/31 18:56:02;;;;;;;2.65;2.15;;;;;;;;;;5050603;28;20381;-66
2021/05/31 18:58:27;;;;;;;4.63;2.40;;;;;;;;;;5050673;28;20076;-69
2021/05/31 19:00:54;;;;;;;4.97;2.17;;;;;;;;;;5051089;28;20108;-69
2021/05/31 19:03:19;;;;;;;5.28;2.60;;;;;;;;;;5052081;28;20033;-69
2021/05/31 19:05:44;;;;;;;5.32;2.42;;;;;;;;;;5052287;28;20063;-69
2021/05/31 19:08:10;;;;;;;8.63;3.00;;;;;;;;;;5051753;28;20021;-69
2021/05/31 19:10:36;;;;;;;3.58;1.92;;;;;;;;;;5051794;28;20017;-69
2021/05/31 19:13:04;;;;;;;3.45;1.98;;;;;;;;;;5050902;28;20067;-69
2021/05/31 19:15:30;;;;;;;2.17;1.63;;;;;;;;;;5052529;28;20025;-69
2021/05/31 19:17:57;;;;;;;9.13;2.38;;;;;;;;;;5051890;28;20064;-69
2021/05/31 19:20:22;;;;;;;8.27;3.08;;;;;;;;;;5052385;28;20017;-69
2021/05/31 19:22:48;;;;;;;6.38;2.63;;;;;;;;;;5055021;28;20028;-70
2021/05/31 19:25:15;;;;;;;9.82;3.22;;;;;;;;;;5055504;28;20139;-69
2021/05/31 19:27:41;;;;;;;33.35;19.15;;;;;;;;;;5055976;28;20427;-70
2021/05/31 19:30:08;;;;;;;34.92;19.92;;;;;;;;;;5055594;28;20025;-70
2021/05/31 19:32:33;;;;;;;11.45;5.20;;;;;;;;;;5055636;28;20404;-69
2021/05/31 19:35:00;;;;;;;17.23;5.97;;;;;;;;;;5055877;28;20104;-69
2021/05/31 19:37:25;;;;;;;10.15;4.53;;;;;;;;;;5054436;28;20024;-69
2021/05/31 19:39:51;;;;;;;17.00;5.78;;;;;;;;;;5055432;28;20033;-69
2021/05/31 19:42:17;;;;;;;14.20;5.82;;;;;;;;;;5055170;28;20032;-69
2021/05/31 19:44:44;;;;;;;15.57;7.22;;;;;;;;;;5055848;28;20025;-69
2021/05/31 19:47:10;;;;;;;11.68;6.05;;;;;;;;;;5055496;28;20012;-70
2021/05/31 19:49:35;;;;;;;9.88;5.78;;;;;;;;;;5054223;28;20021;-70
2021/05/31 19:52:02;;;;;;;22.45;9.13;;;;;;;;;;5054707;28;20044;-70
2021/05/31 19:55:03;;;;;;;24.85;8.68;;;;;;;;;;5054942;28;20013;-69
2021/05/31 20:00:11;;;;;;;17.92;6.70;;;;;;;;;;5054963;28;20436;-70
2021/05/31 20:02:37;;;;;;;12.88;4.72;;;;;;;;;;5055164;28;20083;-69
2021/05/31 20:05:04;;;;;;;13.02;4.32;;;;;;;;;;5054984;28;20363;-69
2021/05/31 20:07:33;;;;;;;8.00;3.45;;;;;;;;;;5053814;28;20497;-69
2021/05/31 20:10:08;;;;;;;5.15;2.55;;;;;;;;;;5055056;28;20067;-70
2021/05/31 20:12:34;;;;;;;8.73;3.47;;;;;;;;;;5053841;28;20017;-69
2021/05/31 20:15:00;;;;;;;5.40;2.40;;;;;;;;;;5054966;28;20020;-70
2021/05/31 20:17:26;;;;;;;11.65;3.22;;;;;;;;;;5054770;28;20013;-68
2021/05/31 20:19:53;;;;;;;23.33;5.60;;;;;;;;;;5053915;28;20036;-70
2021/05/31 20:22:20;;;;;;;10.30;3.10;;;;;;;;;;5054450;28;20099;-70
2021/05/31 20:24:47;;;;;;;13.32;3.38;;;;;;;;;;5052712;28;20056;-70
2021/05/31 20:27:13;;;;;;;6.70;2.78;;;;;;;;;;5049201;28;20021;-70
2021/05/31 20:29:39;;;;;;;7.00;2.75;;;;;;;;;;5054787;28;20459;-69
2021/05/31 20:32:06;;;;;;;9.90;3.53;;;;;;;;;;5053821;28;20013;-70
2021/05/31 20:34:32;;;;;;;4.88;2.28;;;;;;;;;;5054621;28;20009;-69
2021/05/31 20:36:59;;;;;;;7.82;2.85;;;;;;;;;;5054584;28;20017;-70
2021/05/31 20:39:24;;;;;;;10.95;3.20;;;;;;;;;;5054483;28;20390;-70
2021/05/31 20:41:50;;;;;;;13.32;2.78;;;;;;;;;;5054658;28;20009;-69
2021/05/31 20:44:15;;;;;;;10.82;3.40;;;;;;;;;;5054269;28;20178;-70
2021/05/31 20:46:42;;;;;;;7.22;2.65;;;;;;;;;;5054227;28;20019;-69
2021/05/31 20:49:08;;;;;;;5.82;2.38;;;;;;;;;;5054270;28;20021;-70
2021/05/31 20:51:34;;;;;;;3.75;2.35;;;;;;;;;;5053666;28;20104;-69
2021/05/31 20:54:00;;;;;;;5.82;2.63;;;;;;;;;;5054208;28;20493;-70
2021/05/31 20:56:27;;;;;;;8.77;3.03;;;;;;;;;;5054160;28;20049;-70
2021/05/31 20:58:52;;;;;;;9.98;3.15;;;;;;;;;;5053979;28;20041;-70
2021/05/31 21:01:18;;;;;;;14.45;4.63;;;;;;;;;;5053650;28;20385;-69
2021/05/31 21:03:51;;;;;;;11.77;4.28;;;;;;;;;;5052736;28;20106;-70
2021/05/31 21:06:17;;;;;;;15.30;4.43;;;;;;;;;;5053775;28;20045;-70
2021/05/31 21:08:46;;;;;;;10.88;4.38;;;;;;;;;;5054132;28;20100;-70
2021/05/31 21:11:28;;;;;;;8.73;4.35;;;;;;;;;;5054098;28;20124;-70
2021/05/31 21:13:56;;;;;;;9.73;4.25;;;;;;;;;;5053616;28;20021;-69
2021/05/31 21:16:22;;;;;;;10.60;4.38;;;;;;;;;;5052448;28;20013;-70
2021/05/31 21:18:49;;;;;;;14.75;4.55;;;;;;;;;;5053677;28;20447;-70
2021/05/31 21:21:16;;;;;;;10.18;3.90;;;;;;;;;;5053264;28;20009;-70
2021/05/31 21:23:45;;;;;;;9.98;3.92;;;;;;;;;;5053948;28;20108;-70
2021/05/31 21:26:10;;;;;;;9.32;4.00;;;;;;;;;;5053429;28;20500;-70
2021/05/31 21:28:37;;;;;;;7.18;3.88;;;;;;;;;;5053334;28;20025;-69
2021/05/31 21:31:03;;;;;;;9.70;3.50;;;;;;;;;;5035780;28;20063;-70
2021/05/31 21:33:29;;;;;;;7.68;3.63;;;;;;;;;;5053587;28;20420;-70
2021/05/31 21:35:55;;;;;;;11.20;4.10;;;;;;;;;;5053536;28;20020;-70
2021/05/31 21:38:21;;;;;;;7.90;3.20;;;;;;;;;;5052950;28;20040;-70
2021/05/31 21:40:47;;;;;;;8.88;3.35;;;;;;;;;;5053368;28;20393;-70
2021/05/31 21:43:13;;;;;;;7.90;3.63;;;;;;;;;;5052306;28;20029;-69
2021/05/31 21:45:40;;;;;;;6.88;3.08;;;;;;;;;;5053439;28;20427;-69
2021/05/31 21:48:08;;;;;;;10.07;3.95;;;;;;;;;;5052812;28;20897;-70
2021/05/31 21:50:36;;;;;;;8.50;3.65;;;;;;;;;;5052479;28;20021;-69
2021/05/31 21:53:03;;;;;;;6.45;2.78;;;;;;;;;;5053302;28;20071;-71
2021/05/31 21:55:29;;;;;;;6.63;3.03;;;;;;;;;;5053275;28;20021;-70
2021/05/31 21:57:55;;;;;;;10.50;3.80;;;;;;;;;;5052719;28;20477;-70
2021/05/31 22:00:29;;;;;;;8.07;3.63;;;;;;;;;;5052612;28;20036;-70
2021/05/31 22:02:55;;;;;;;7.68;3.25;;;;;;;;;;5053044;28;20023;-70
2021/05/31 22:05:21;;;;;;;9.43;3.63;;;;;;;;;;5051767;28;20092;-70
2021/05/31 22:07:47;;;;;;;7.45;3.53;;;;;;;;;;5052970;28;20143;-70
2021/05/31 22:10:14;;;;;;;8.82;4.38;;;;;;;;;;5053171;28;20477;-69
2021/05/31 22:12:39;;;;;;;8.18;3.88;;;;;;;;;;5052716;28;20420;-70
2021/05/31 22:15:10;;;;;;;8.23;3.80;;;;;;;;;;5052718;28;20017;-70
2021/05/31 22:17:36;;;;;;;8.15;3.47;;;;;;;;;;5051496;28;20036;-70
2021/05/31 22:20:05;;;;;;;22.83;7.75;;;;;;;;;;5051733;28;20033;-71
2021/05/31 22:25:07;;;;;;;9.35;4.55;;;;;;;;;;5052341;28;20512;-70
2021/05/31 22:32:53;;;;;;;8.48;4.40;;;;;;;;;;5052903;28;20461;-70
2021/05/31 22:35:19;;;;;;;13.23;4.32;;;;;;;;;;5052370;28;20406;-69
2021/05/31 22:37:48;;;;;;;12.45;5.25;;;;;;;;;;5052052;28;20745;-70
2021/05/31 22:40:18;;;;;;;9.90;5.07;;;;;;;;;;5052202;28;20040;-70
2021/05/31 22:42:55;;;;;;;10.43;4.15;;;;;;;;;;5051351;28;20060;-69
2021/05/31 22:56:30;;;;;;;10.40;4.60;;;;;;;;;;5051903;28;20036;-69
2021/05/31 23:12:30;;;;;;;9.63;4.45;;;;;;;;;;5052044;28;20089;-70
2021/05/31 23:14:57;;;;;;;8.35;4.43;;;;;;;;;;5052071;28;20044;-70
2021/05/31 23:17:25;;;;;;;10.43;4.50;;;;;;;;;;5051338;28;20076;-69
2021/05/31 23:19:51;;;;;;;12.82;5.22;;;;;;;;;;5049631;28;20057;-70
2021/05/31 23:22:17;;;;;;;10.93;5.35;;;;;;;;;;5050431;28;20079;-70
2021/05/31 23:24:43;;;;;;;9.10;4.57;;;;;;;;;;5050834;28;20386;-70
2021/05/31 23:27:12;;;;;;;7.65;4.60;;;;;;;;;;5051812;28;20021;-70
2021/05/31 23:29:38;;;;;;;12.77;5.30;;;;;;;;;;5051877;28;20496;-70
2021/05/31 23:32:04;;;;;;;12.52;6.72;;;;;;;;;;5051501;28;20036;-69
2021/05/31 23:34:29;;;;;;;7.50;5.20;;;;;;;;;;5052096;28;20021;-70
2021/05/31 23:36:56;;;;;;;13.32;5.47;;;;;;;;;;5050356;28;20013;-70
2021/05/31 23:39:23;;;;;;;10.73;5.55;;;;;;;;;;5051735;28;20033;-70
2021/05/31 23:41:49;;;;;;;9.38;5.18;;;;;;;;;;5051802;28;20049;-69
2021/05/31 23:44:14;;;;;;;19.00;6.60;;;;;;;;;;5051521;28;20098;-70
2021/05/31 23:46:40;;;;;;;10.35;5.72;;;;;;;;;;5051410;28;20013;-69
2021/05/31 23:49:07;;;;;;;15.85;6.00;;;;;;;;;;5051737;28;20481;-70
2021/05/31 23:51:35;;;;;;;7.80;5.25;;;;;;;;;;5051064;28;20027;-69
2021/05/31 23:54:13;;;;;;;12.15;5.45;;;;;;;;;;5049543;28;20451;-70
2021/05/31 23:56:40;;;;;;;10.55;6.03;;;;;;;;;;5050313;28;20017;-69
2021/05/31 23:59:06;;;;;;;7.72;5.32;;;;;;;;;;5051158;28;20041;-70
